• Join FlightAware (Why Join?)
  • Login
  • US Flag 
06:04PM EST


 

Airport Tracker/Info


-or-


 

Live Flight TrackerFlight Track Log ✈ JBU24 ✈ 17-May-2013 ✈ KJFK - KSYR

Flight Track Log - Related Links

Times and Time Zones

All times are in EDT time to prevent confusion due to time zone crossing. See the JBU24 flight status page for this flight to view local times or setup timezone preferences in your user account.

Time Position Orientation Groundspeed Altitude Reporting Facility
EDT Latitude Longitude Course Direction KTS MPH feet Rate Location/Type
05:18PM 40.6500 -73.7000 316° Northwest 197 227 2,400  Level New York TRACON
05:19PM 40.6667 -73.6167 75° East 251 289 5,100 2,760 Climbing New York TRACON
05:20PM 40.7970 -73.9970 323° Northwest  Level FlightAware Approximate
05:20PM 40.6833 -73.5333 75° East 280 322 8,000  Level New York TRACON
05:21PM 40.8535 -74.0719 311° West  Level FlightAware Approximate
05:21PM 40.7667 -73.5167 North 275 316 11,000  Level New York TRACON
05:22PM 40.9067 -74.1516 311° West  Level FlightAware Approximate
05:22PM 40.8333 -73.5333 349° North 282 325 13,800  Level New York TRACON
05:23PM 40.9635 -74.2268 316° Northwest  Level FlightAware Approximate
05:23PM 40.9167 -73.5667 343° North 291 335 16,700  Level New York TRACON
05:24PM 40.9667 -73.6333 315° West 284 327 17,100 180 Climbing New York TRACON
05:25PM 41.0333 -73.7000 323° Northwest 283 326 17,100  Level New York TRACON
05:26PM 41.0667 -73.8000 294° West 281 323 17,100  Level New York TRACON
05:27PM 41.0833 -73.9000 282° West 280 322 17,100  Level New York TRACON
05:28PM 41.1000 -74.0000 283° West 283 326 17,100 -60 Level New York TRACON
05:29PM 41.1250 -74.1067 287° West 284 327 17,000 -60 Descending New York Center
05:30PM 41.1453 -74.1958 287° West 279 321 17,000  Level New York Center
05:31PM 41.1692 -74.3047 286° West 284 327 17,000  Level New York Center
05:32PM 41.1894 -74.3939 287° West 284 327 17,000  Level New York Center
05:33PM 41.2108 -74.5025 285° West 284 327 17,000  Level New York Center
05:34PM 41.2353 -74.5894 291° West 284 327 17,000 1,260 Level New York Center
05:35PM 41.2886 -74.6781 309° West 281 323 19,600 2,520 Climbing New York Center
05:36PM 41.3378 -74.7639 307° West 287 330 22,000 1,140 Climbing New York Center
05:37PM 41.3911 -74.8500 310° West 292 336 22,000  Level New York Center
05:38PM 41.4422 -74.9333 309° West 292 336 22,000  Level New York Center
05:39PM 41.4933 -75.0194 308° West 292 336 22,000  Level New York Center
05:40PM 41.5444 -75.1031 309° West 292 336 22,000  Level New York Center
05:41PM 41.5956 -75.1869 309° West 292 336 22,000  Level New York Center
05:42PM 41.6486 -75.2736 309° West 292 336 22,000  Level New York Center
05:43PM 41.6994 -75.3606 308° West 298 343 22,000  Level New York Center
05:44PM 41.7500 -75.4472 308° West 298 343 22,000  Level New York Center
05:45PM 41.8031 -75.5317 310° West 298 343 22,000  Level New York Center
05:46PM 41.8517 -75.6158 308° West 298 343 22,000 -120 Level New York Center
05:47PM 41.9022 -75.7006 309° West 292 336 21,800 -720 Descending New York Center
05:48PM 41.9528 -75.7878 308° West 292 336 20,600 -1,080 Descending New York Center
05:49PM 42.0033 -75.8728 309° West 292 336 19,700 -960 Descending New York Center
05:50PM 42.0514 -75.9600 307° West 292 336 18,800 -900 Descending New York Center
05:51PM 42.1000 -76.0422 309° West 287 330 17,900 -900 Descending New York Center
05:52PM 42.1525 -76.1219 312° West 287 330 17,100 -480 Descending New York Center
05:53PM 42.2353 -76.1342 354° North 271 312 17,000 -600 Descending New York Center
05:54PM 42.3169 -76.1214 North 277 319 16,000 -1,500 Descending New York Center
05:55PM 42.4031 -76.1086 North 288 331 14,000 -1,980 Descending New York Center
05:56PM 42.4725 -76.1025 North 292 336 12,500 -1,680 Descending Boston Center
05:57PM 42.5500 -76.0931 North 283 326 11,000 -1,200 Descending Boston Center
05:58PM 42.6253 -76.0861 North 273 314 10,100 -1,200 Descending Boston Center
05:59PM 42.6944 -76.0761 North 267 307 8,700 -1,680 Descending Boston Center
06:00PM 42.7719 -76.0694 North 264 304 6,800 -1,800 Descending Boston Center
06:01PM 42.8531 -76.0686 360° North 264 304 5,000 -1,440 Descending Boston Center
06:02PM 42.9225 -76.0528 North 254 292 4,000 -660 Descending Boston Center
06:03PM 42.9836 -76.0336 13° North 206 237 3,700 -540 Descending Boston Center
06:04PM 43.0342 -76.0194 12° North 161 185 2,900 -1,140 Descending Boston Center
06:05PM 43.0647 -76.0411 333° Northwest 129 148 1,600 -1,140 Descending Boston Center
06:06PM 43.0886 -76.0739 315° West 130 150 900 -780 Descending Boston Center